sensor_id;sensor_type;location;lat;lon;timestamp;temperature;humidity
41344;DHT22;27089;50.022;7.604;2022-07-04T00:00:23;16.40;99.90
41344;DHT22;27089;50.022;7.604;2022-07-04T00:02:50;16.40;99.90
41344;DHT22;27089;50.022;7.604;2022-07-04T00:05:18;16.40;99.90
41344;DHT22;27089;50.022;7.604;2022-07-04T00:07:48;16.40;99.90
41344;DHT22;27089;50.022;7.604;2022-07-04T00:10:17;16.40;99.90
41344;DHT22;27089;50.022;7.604;2022-07-04T00:12:46;16.40;99.90
41344;DHT22;27089;50.022;7.604;2022-07-04T00:15:14;16.30;99.90
41344;DHT22;27089;50.022;7.604;2022-07-04T00:17:41;16.20;99.90
41344;DHT22;27089;50.022;7.604;2022-07-04T00:20:09;16.10;99.90
41344;DHT22;27089;50.022;7.604;2022-07-04T00:22:37;15.90;99.90
41344;DHT22;27089;50.022;7.604;2022-07-04T00:25:06;15.70;99.90
41344;DHT22;27089;50.022;7.604;2022-07-04T00:27:33;15.60;99.90
41344;DHT22;27089;50.022;7.604;2022-07-04T00:30:00;15.50;99.90
41344;DHT22;27089;50.022;7.604;2022-07-04T00:32:27;15.40;99.90
41344;DHT22;27089;50.022;7.604;2022-07-04T00:34:54;15.30;99.90
41344;DHT22;27089;50.022;7.604;2022-07-04T00:37:21;15.30;99.90
41344;DHT22;27089;50.022;7.604;2022-07-04T00:39:48;15.20;99.90
41344;DHT22;27089;50.022;7.604;2022-07-04T00:42:16;15.20;99.90
41344;DHT22;27089;50.022;7.604;2022-07-04T00:44:43;15.30;99.90
41344;DHT22;27089;50.022;7.604;2022-07-04T00:47:11;15.40;99.90
41344;DHT22;27089;50.022;7.604;2022-07-04T00:49:37;15.40;99.90
41344;DHT22;27089;50.022;7.604;2022-07-04T00:52:06;15.30;99.90
41344;DHT22;27089;50.022;7.604;2022-07-04T00:54:34;15.30;99.90
41344;DHT22;27089;50.022;7.604;2022-07-04T00:57:02;15.20;99.90
41344;DHT22;27089;50.022;7.604;2022-07-04T00:59:30;15.30;99.90
41344;DHT22;27089;50.022;7.604;2022-07-04T01:01:57;15.30;99.90
41344;DHT22;27089;50.022;7.604;2022-07-04T01:04:24;15.20;99.90
41344;DHT22;27089;50.022;7.604;2022-07-04T01:06:52;14.90;99.90
41344;DHT22;27089;50.022;7.604;2022-07-04T01:09:19;14.70;99.90
41344;DHT22;27089;50.022;7.604;2022-07-04T01:11:49;14.60;99.90
41344;DHT22;27089;50.022;7.604;2022-07-04T01:14:16;14.60;99.90
41344;DHT22;27089;50.022;7.604;2022-07-04T01:16:44;14.60;99.90
41344;DHT22;27089;50.022;7.604;2022-07-04T01:19:11;14.50;99.90
41344;DHT22;27089;50.022;7.604;2022-07-04T01:21:39;14.40;99.90
41344;DHT22;27089;50.022;7.604;2022-07-04T01:24:07;14.40;99.90
41344;DHT22;27089;50.022;7.604;2022-07-04T01:26:34;14.30;99.90
41344;DHT22;27089;50.022;7.604;2022-07-04T01:29:00;14.30;99.90
41344;DHT22;27089;50.022;7.604;2022-07-04T01:31:27;14.30;99.90
41344;DHT22;27089;50.022;7.604;2022-07-04T01:33:54;14.30;99.90
41344;DHT22;27089;50.022;7.604;2022-07-04T01:36:21;14.10;99.90
41344;DHT22;27089;50.022;7.604;2022-07-04T01:38:50;14.00;99.90
41344;DHT22;27089;50.022;7.604;2022-07-04T01:41:17;14.00;99.90
41344;DHT22;27089;50.022;7.604;2022-07-04T01:43:44;14.00;99.90
41344;DHT22;27089;50.022;7.604;2022-07-04T01:46:11;14.00;99.90
41344;DHT22;27089;50.022;7.604;2022-07-04T01:48:38;14.00;99.90
41344;DHT22;27089;50.022;7.604;2022-07-04T01:51:05;13.90;99.90
41344;DHT22;27089;50.022;7.604;2022-07-04T01:53:35;13.90;99.90
41344;DHT22;27089;50.022;7.604;2022-07-04T01:56:04;13.80;99.90
41344;DHT22;27089;50.022;7.604;2022-07-04T01:58:31;13.70;99.90
41344;DHT22;27089;50.022;7.604;2022-07-04T02:00:59;13.70;99.90
41344;DHT22;27089;50.022;7.604;2022-07-04T02:03:43;13.70;99.90
41344;DHT22;27089;50.022;7.604;2022-07-04T02:06:11;13.70;99.90
41344;DHT22;27089;50.022;7.604;2022-07-04T02:08:38;13.70;99.90
41344;DHT22;27089;50.022;7.604;2022-07-04T02:11:24;13.60;99.90
41344;DHT22;27089;50.022;7.604;2022-07-04T02:13:51;13.50;99.90
41344;DHT22;27089;50.022;7.604;2022-07-04T02:16:17;13.40;99.90
41344;DHT22;27089;50.022;7.604;2022-07-04T02:18:44;13.40;99.90
41344;DHT22;27089;50.022;7.604;2022-07-04T02:21:11;13.40;99.90
41344;DHT22;27089;50.022;7.604;2022-07-04T02:23:38;13.50;99.90
41344;DHT22;27089;50.022;7.604;2022-07-04T02:26:05;13.50;99.90
41344;DHT22;27089;50.022;7.604;2022-07-04T02:28:33;13.50;99.90
41344;DHT22;27089;50.022;7.604;2022-07-04T02:31:00;13.40;99.90
41344;DHT22;27089;50.022;7.604;2022-07-04T02:33:27;13.20;99.90
41344;DHT22;27089;50.022;7.604;2022-07-04T02:35:54;13.20;99.90
41344;DHT22;27089;50.022;7.604;2022-07-04T02:38:21;13.10;99.90
41344;DHT22;27089;50.022;7.604;2022-07-04T02:40:48;13.00;99.90
41344;DHT22;27089;50.022;7.604;2022-07-04T02:43:15;13.00;99.90
41344;DHT22;27089;50.022;7.604;2022-07-04T02:45:45;12.90;99.90
41344;DHT22;27089;50.022;7.604;2022-07-04T02:48:12;12.90;99.90
41344;DHT22;27089;50.022;7.604;2022-07-04T02:50:39;12.90;99.90
41344;DHT22;27089;50.022;7.604;2022-07-04T02:53:05;12.90;99.90
41344;DHT22;27089;50.022;7.604;2022-07-04T02:55:32;12.80;99.90
41344;DHT22;27089;50.022;7.604;2022-07-04T02:57:59;12.80;99.90
41344;DHT22;27089;50.022;7.604;2022-07-04T03:00:27;12.70;99.90
41344;DHT22;27089;50.022;7.604;2022-07-04T03:02:55;12.50;99.90
41344;DHT22;27089;50.022;7.604;2022-07-04T03:05:22;12.30;99.90
41344;DHT22;27089;50.022;7.604;2022-07-04T03:07:49;12.30;99.90
41344;DHT22;27089;50.022;7.604;2022-07-04T03:10:16;12.30;99.90
41344;DHT22;27089;50.022;7.604;2022-07-04T03:12:43;12.30;99.90
41344;DHT22;27089;50.022;7.604;2022-07-04T03:15:10;12.30;99.90
41344;DHT22;27089;50.022;7.604;2022-07-04T03:17:37;12.40;99.90
41344;DHT22;27089;50.022;7.604;2022-07-04T03:20:07;12.50;99.90
41344;DHT22;27089;50.022;7.604;2022-07-04T03:22:34;12.60;99.90
41344;DHT22;27089;50.022;7.604;2022-07-04T03:25:01;12.50;99.90
41344;DHT22;27089;50.022;7.604;2022-07-04T03:27:28;12.30;99.90
41344;DHT22;27089;50.022;7.604;2022-07-04T03:29:55;12.10;99.90
41344;DHT22;27089;50.022;7.604;2022-07-04T03:32:22;11.90;99.90
41344;DHT22;27089;50.022;7.604;2022-07-04T03:34:49;11.90;99.90
41344;DHT22;27089;50.022;7.604;2022-07-04T03:37:17;12.00;99.90
41344;DHT22;27089;50.022;7.604;2022-07-04T03:39:44;12.10;99.90
41344;DHT22;27089;50.022;7.604;2022-07-04T03:42:11;12.00;99.90
41344;DHT22;27089;50.022;7.604;2022-07-04T03:44:38;11.90;99.90
41344;DHT22;27089;50.022;7.604;2022-07-04T03:47:05;11.80;99.90
41344;DHT22;27089;50.022;7.604;2022-07-04T03:49:32;11.60;99.90
41344;DHT22;27089;50.022;7.604;2022-07-04T03:51:59;11.50;99.90
41344;DHT22;27089;50.022;7.604;2022-07-04T03:54:28;11.60;99.90
41344;DHT22;27089;50.022;7.604;2022-07-04T03:56:55;11.60;99.90
41344;DHT22;27089;50.022;7.604;2022-07-04T03:59:22;11.70;99.90
41344;DHT22;27089;50.022;7.604;2022-07-04T04:01:49;11.70;99.90
41344;DHT22;27089;50.022;7.604;2022-07-04T04:04:16;11.70;99.90
41344;DHT22;27089;50.022;7.604;2022-07-04T04:07:00;11.70;99.90
41344;DHT22;27089;50.022;7.604;2022-07-04T04:09:28;11.70;99.90
41344;DHT22;27089;50.022;7.604;2022-07-04T04:11:55;11.80;99.90
41344;DHT22;27089;50.022;7.604;2022-07-04T04:14:22;11.90;99.90
41344;DHT22;27089;50.022;7.604;2022-07-04T04:16:50;11.90;99.90
41344;DHT22;27089;50.022;7.604;2022-07-04T04:19:17;11.90;99.90
41344;DHT22;27089;50.022;7.604;2022-07-04T04:21:44;11.80;99.90
41344;DHT22;27089;50.022;7.604;2022-07-04T04:24:11;11.80;99.90
41344;DHT22;27089;50.022;7.604;2022-07-04T04:26:39;11.80;99.90
41344;DHT22;27089;50.022;7.604;2022-07-04T04:29:06;11.90;99.90
41344;DHT22;27089;50.022;7.604;2022-07-04T04:31:33;12.10;99.90
41344;DHT22;27089;50.022;7.604;2022-07-04T04:34:00;12.20;99.90
41344;DHT22;27089;50.022;7.604;2022-07-04T04:36:27;12.40;99.90
41344;DHT22;27089;50.022;7.604;2022-07-04T04:38:54;12.60;99.90
41344;DHT22;27089;50.022;7.604;2022-07-04T04:41:21;12.80;99.90
41344;DHT22;27089;50.022;7.604;2022-07-04T04:43:49;13.00;99.90
41344;DHT22;27089;50.022;7.604;2022-07-04T04:46:16;13.20;99.90
41344;DHT22;27089;50.022;7.604;2022-07-04T04:48:43;13.30;99.90
41344;DHT22;27089;50.022;7.604;2022-07-04T04:51:10;13.50;99.90
41344;DHT22;27089;50.022;7.604;2022-07-04T04:53:37;13.60;99.90
41344;DHT22;27089;50.022;7.604;2022-07-04T04:56:04;13.60;99.90
41344;DHT22;27089;50.022;7.604;2022-07-04T04:58:31;13.60;99.90
41344;DHT22;27089;50.022;7.604;2022-07-04T05:01:00;13.60;99.90
41344;DHT22;27089;50.022;7.604;2022-07-04T05:03:28;13.70;99.90
41344;DHT22;27089;50.022;7.604;2022-07-04T05:05:55;13.80;99.90
41344;DHT22;27089;50.022;7.604;2022-07-04T05:08:22;13.90;99.90
41344;DHT22;27089;50.022;7.604;2022-07-04T05:10:50;14.00;99.90
41344;DHT22;27089;50.022;7.604;2022-07-04T05:13:17;14.10;99.90
41344;DHT22;27089;50.022;7.604;2022-07-04T05:15:44;14.20;99.90
41344;DHT22;27089;50.022;7.604;2022-07-04T05:18:13;14.20;99.90
41344;DHT22;27089;50.022;7.604;2022-07-04T05:20:41;14.30;99.90
41344;DHT22;27089;50.022;7.604;2022-07-04T05:23:08;14.40;99.90
41344;DHT22;27089;50.022;7.604;2022-07-04T05:25:35;14.50;99.90
41344;DHT22;27089;50.022;7.604;2022-07-04T05:28:02;14.60;99.90
41344;DHT22;27089;50.022;7.604;2022-07-04T05:30:29;14.80;99.90
41344;DHT22;27089;50.022;7.604;2022-07-04T05:32:56;14.90;99.90
41344;DHT22;27089;50.022;7.604;2022-07-04T05:35:25;15.10;99.90
41344;DHT22;27089;50.022;7.604;2022-07-04T05:37:53;15.30;99.90
41344;DHT22;27089;50.022;7.604;2022-07-04T05:40:20;15.50;99.90
41344;DHT22;27089;50.022;7.604;2022-07-04T05:42:47;15.60;99.90
41344;DHT22;27089;50.022;7.604;2022-07-04T05:45:15;15.70;99.90
41344;DHT22;27089;50.022;7.604;2022-07-04T05:47:42;15.70;99.90
41344;DHT22;27089;50.022;7.604;2022-07-04T05:50:09;15.80;99.90
41344;DHT22;27089;50.022;7.604;2022-07-04T05:52:38;15.90;99.90
41344;DHT22;27089;50.022;7.604;2022-07-04T05:55:06;15.90;99.90
41344;DHT22;27089;50.022;7.604;2022-07-04T05:57:33;15.90;99.90
41344;DHT22;27089;50.022;7.604;2022-07-04T06:00:02;16.00;99.90
41344;DHT22;27089;50.022;7.604;2022-07-04T06:02:29;16.10;99.90
41344;DHT22;27089;50.022;7.604;2022-07-04T06:04:56;16.10;99.90
41344;DHT22;27089;50.022;7.604;2022-07-04T06:07:23;16.20;99.90
41344;DHT22;27089;50.022;7.604;2022-07-04T06:09:51;16.30;99.90
41344;DHT22;27089;50.022;7.604;2022-07-04T06:12:18;16.40;99.90
41344;DHT22;27089;50.022;7.604;2022-07-04T06:14:45;16.40;99.90
41344;DHT22;27089;50.022;7.604;2022-07-04T06:17:12;16.50;99.90
41344;DHT22;27089;50.022;7.604;2022-07-04T06:19:39;16.50;99.90
41344;DHT22;27089;50.022;7.604;2022-07-04T06:22:06;16.60;99.90
41344;DHT22;27089;50.022;7.604;2022-07-04T06:24:33;16.70;99.90
41344;DHT22;27089;50.022;7.604;2022-07-04T06:27:02;16.80;99.90
41344;DHT22;27089;50.022;7.604;2022-07-04T06:29:29;16.90;99.90
41344;DHT22;27089;50.022;7.604;2022-07-04T06:31:56;17.10;99.90
41344;DHT22;27089;50.022;7.604;2022-07-04T06:34:23;17.20;99.90
41344;DHT22;27089;50.022;7.604;2022-07-04T06:37:08;17.30;99.90
41344;DHT22;27089;50.022;7.604;2022-07-04T06:39:35;17.40;99.90
41344;DHT22;27089;50.022;7.604;2022-07-04T06:42:04;17.40;99.90
41344;DHT22;27089;50.022;7.604;2022-07-04T06:44:31;17.60;99.90
41344;DHT22;27089;50.022;7.604;2022-07-04T06:46:58;17.70;99.90
41344;DHT22;27089;50.022;7.604;2022-07-04T06:49:25;17.70;99.90
41344;DHT22;27089;50.022;7.604;2022-07-04T06:51:52;17.60;99.90
41344;DHT22;27089;50.022;7.604;2022-07-04T06:54:19;17.70;99.90
41344;DHT22;27089;50.022;7.604;2022-07-04T06:56:46;17.90;99.90
41344;DHT22;27089;50.022;7.604;2022-07-04T06:59:14;17.90;99.90
41344;DHT22;27089;50.022;7.604;2022-07-04T07:01:41;17.60;99.90
41344;DHT22;27089;50.022;7.604;2022-07-04T07:04:08;17.70;99.90
41344;DHT22;27089;50.022;7.604;2022-07-04T07:06:36;17.80;99.90
41344;DHT22;27089;50.022;7.604;2022-07-04T07:09:03;17.90;99.90
41344;DHT22;27089;50.022;7.604;2022-07-04T07:11:30;18.10;99.90
41344;DHT22;27089;50.022;7.604;2022-07-04T07:13:57;18.30;99.90
41344;DHT22;27089;50.022;7.604;2022-07-04T07:16:26;18.40;99.90
41344;DHT22;27089;50.022;7.604;2022-07-04T07:18:52;18.50;99.90
41344;DHT22;27089;50.022;7.604;2022-07-04T07:21:19;18.60;99.90
41344;DHT22;27089;50.022;7.604;2022-07-04T07:23:46;18.80;99.90
41344;DHT22;27089;50.022;7.604;2022-07-04T07:26:13;18.90;99.90
41344;DHT22;27089;50.022;7.604;2022-07-04T07:28:41;18.90;99.90
41344;DHT22;27089;50.022;7.604;2022-07-04T07:31:08;19.00;99.90
41344;DHT22;27089;50.022;7.604;2022-07-04T07:33:37;19.10;99.90
41344;DHT22;27089;50.022;7.604;2022-07-04T07:36:04;19.20;99.90
41344;DHT22;27089;50.022;7.604;2022-07-04T07:38:31;19.20;99.90
41344;DHT22;27089;50.022;7.604;2022-07-04T07:40:58;19.20;99.90
41344;DHT22;27089;50.022;7.604;2022-07-04T07:43:25;19.30;99.90
41344;DHT22;27089;50.022;7.604;2022-07-04T07:45:52;19.30;99.90
41344;DHT22;27089;50.022;7.604;2022-07-04T07:48:19;19.20;99.90
41344;DHT22;27089;50.022;7.604;2022-07-04T07:50:47;19.10;99.90
41344;DHT22;27089;50.022;7.604;2022-07-04T07:53:14;19.10;99.90
41344;DHT22;27089;50.022;7.604;2022-07-04T07:55:42;19.20;99.90
41344;DHT22;27089;50.022;7.604;2022-07-04T07:58:09;19.40;99.90
41344;DHT22;27089;50.022;7.604;2022-07-04T08:00:35;19.50;99.90
41344;DHT22;27089;50.022;7.604;2022-07-04T08:03:03;19.60;99.90
41344;DHT22;27089;50.022;7.604;2022-07-04T08:05:48;19.70;99.90
41344;DHT22;27089;50.022;7.604;2022-07-04T08:08:15;19.70;99.90
41344;DHT22;27089;50.022;7.604;2022-07-04T08:10:42;19.70;99.90
41344;DHT22;27089;50.022;7.604;2022-07-04T08:13:09;19.80;99.90
41344;DHT22;27089;50.022;7.604;2022-07-04T08:15:36;19.80;99.90
41344;DHT22;27089;50.022;7.604;2022-07-04T08:18:03;19.90;99.90
41344;DHT22;27089;50.022;7.604;2022-07-04T08:20:30;19.90;99.90
41344;DHT22;27089;50.022;7.604;2022-07-04T08:22:59;19.70;99.90
41344;DHT22;27089;50.022;7.604;2022-07-04T08:25:26;19.80;99.90
41344;DHT22;27089;50.022;7.604;2022-07-04T08:27:53;19.80;99.90
41344;DHT22;27089;50.022;7.604;2022-07-04T08:30:20;19.90;99.90
41344;DHT22;27089;50.022;7.604;2022-07-04T08:32:47;19.90;99.90
41344;DHT22;27089;50.022;7.604;2022-07-04T08:35:14;19.90;99.90
41344;DHT22;27089;50.022;7.604;2022-07-04T08:37:41;20.10;99.90
41344;DHT22;27089;50.022;7.604;2022-07-04T08:40:11;20.30;99.90
41344;DHT22;27089;50.022;7.604;2022-07-04T08:42:39;20.40;99.90
41344;DHT22;27089;50.022;7.604;2022-07-04T08:45:07;20.50;99.90
41344;DHT22;27089;50.022;7.604;2022-07-04T08:47:35;20.50;99.90
41344;DHT22;27089;50.022;7.604;2022-07-04T08:50:08;20.60;99.90
41344;DHT22;27089;50.022;7.604;2022-07-04T08:52:40;20.60;99.90
41344;DHT22;27089;50.022;7.604;2022-07-04T08:55:10;20.60;99.90
41344;DHT22;27089;50.022;7.604;2022-07-04T08:57:56;20.60;99.90
41344;DHT22;27089;50.022;7.604;2022-07-04T09:00:41;20.70;99.90
41344;DHT22;27089;50.022;7.604;2022-07-04T09:03:08;20.80;99.90
41344;DHT22;27089;50.022;7.604;2022-07-04T09:05:36;20.90;99.90
41344;DHT22;27089;50.022;7.604;2022-07-04T09:08:04;20.90;99.90
41344;DHT22;27089;50.022;7.604;2022-07-04T09:10:32;20.90;99.90
41344;DHT22;27089;50.022;7.604;2022-07-04T09:13:01;21.10;99.90
41344;DHT22;27089;50.022;7.604;2022-07-04T09:15:29;21.30;99.90
41344;DHT22;27089;50.022;7.604;2022-07-04T09:17:57;21.50;99.90
41344;DHT22;27089;50.022;7.604;2022-07-04T09:20:25;21.80;99.90
41344;DHT22;27089;50.022;7.604;2022-07-04T09:22:53;22.30;99.90
41344;DHT22;27089;50.022;7.604;2022-07-04T09:25:21;22.80;99.90
41344;DHT22;27089;50.022;7.604;2022-07-04T09:27:51;23.40;99.90
41344;DHT22;27089;50.022;7.604;2022-07-04T09:30:20;24.20;99.90
41344;DHT22;27089;50.022;7.604;2022-07-04T09:32:50;24.80;98.40
41344;DHT22;27089;50.022;7.604;2022-07-04T09:35:21;25.40;95.60
41344;DHT22;27089;50.022;7.604;2022-07-04T09:37:50;26.00;92.00
41344;DHT22;27089;50.022;7.604;2022-07-04T09:40:26;26.50;89.80
41344;DHT22;27089;50.022;7.604;2022-07-04T09:42:56;27.00;87.30
41344;DHT22;27089;50.022;7.604;2022-07-04T09:45:24;27.70;90.10
41344;DHT22;27089;50.022;7.604;2022-07-04T09:47:54;28.30;86.70
41344;DHT22;27089;50.022;7.604;2022-07-04T09:50:22;28.60;81.10
41344;DHT22;27089;50.022;7.604;2022-07-04T09:52:52;28.70;80.90
41344;DHT22;27089;50.022;7.604;2022-07-04T09:55:21;29.10;75.50
41344;DHT22;27089;50.022;7.604;2022-07-04T09:57:49;28.70;73.40
41344;DHT22;27089;50.022;7.604;2022-07-04T10:00:19;28.40;73.50
41344;DHT22;27089;50.022;7.604;2022-07-04T10:02:46;28.30;75.80
41344;DHT22;27089;50.022;7.604;2022-07-04T10:05:21;28.40;74.30
41344;DHT22;27089;50.022;7.604;2022-07-04T10:07:49;28.30;74.00
41344;DHT22;27089;50.022;7.604;2022-07-04T10:10:27;28.00;74.60
41344;DHT22;27089;50.022;7.604;2022-07-04T10:12:55;27.20;73.70
41344;DHT22;27089;50.022;7.604;2022-07-04T10:15:24;26.60;74.00
41344;DHT22;27089;50.022;7.604;2022-07-04T10:17:51;26.30;77.30
41344;DHT22;27089;50.022;7.604;2022-07-04T10:20:19;26.20;77.90
41344;DHT22;27089;50.022;7.604;2022-07-04T10:22:47;26.00;77.80
41344;DHT22;27089;50.022;7.604;2022-07-04T10:25:14;25.70;78.70
41344;DHT22;27089;50.022;7.604;2022-07-04T10:27:41;25.80;80.00
41344;DHT22;27089;50.022;7.604;2022-07-04T10:30:12;25.90;78.70
41344;DHT22;27089;50.022;7.604;2022-07-04T10:32:43;25.70;79.20
41344;DHT22;27089;50.022;7.604;2022-07-04T10:35:14;25.50;82.20
41344;DHT22;27089;50.022;7.604;2022-07-04T10:38:04;25.20;84.60
41344;DHT22;27089;50.022;7.604;2022-07-04T10:40:44;24.80;81.40
41344;DHT22;27089;50.022;7.604;2022-07-04T10:46:25;24.50;86.40
41344;DHT22;27089;50.022;7.604;2022-07-04T10:48:56;24.40;86.10
41344;DHT22;27089;50.022;7.604;2022-07-04T10:51:36;24.30;84.70
41344;DHT22;27089;50.022;7.604;2022-07-04T10:54:06;24.20;88.00
41344;DHT22;27089;50.022;7.604;2022-07-04T10:56:49;24.40;90.10
41344;DHT22;27089;50.022;7.604;2022-07-04T10:59:18;24.40;87.70
41344;DHT22;27089;50.022;7.604;2022-07-04T11:01:46;24.40;86.60
41344;DHT22;27089;50.022;7.604;2022-07-04T11:04:45;24.30;85.30
41344;DHT22;27089;50.022;7.604;2022-07-04T11:07:13;24.30;88.50
41344;DHT22;27089;50.022;7.604;2022-07-04T11:09:40;24.30;88.10
41344;DHT22;27089;50.022;7.604;2022-07-04T11:12:09;24.40;89.00
41344;DHT22;27089;50.022;7.604;2022-07-04T11:14:38;24.40;90.20
41344;DHT22;27089;50.022;7.604;2022-07-04T11:17:06;24.50;89.80
41344;DHT22;27089;50.022;7.604;2022-07-04T11:19:34;24.40;87.50
41344;DHT22;27089;50.022;7.604;2022-07-04T11:22:02;24.30;82.80
41344;DHT22;27089;50.022;7.604;2022-07-04T11:24:30;24.10;83.70
41344;DHT22;27089;50.022;7.604;2022-07-04T11:26:58;24.20;86.00
41344;DHT22;27089;50.022;7.604;2022-07-04T11:29:26;24.20;82.60
41344;DHT22;27089;50.022;7.604;2022-07-04T11:31:53;24.00;84.00
41344;DHT22;27089;50.022;7.604;2022-07-04T11:34:21;24.00;83.20
41344;DHT22;27089;50.022;7.604;2022-07-04T11:36:50;23.90;86.30
41344;DHT22;27089;50.022;7.604;2022-07-04T11:39:19;24.10;88.30
41344;DHT22;27089;50.022;7.604;2022-07-04T11:41:49;24.40;84.70
41344;DHT22;27089;50.022;7.604;2022-07-04T11:44:36;24.30;81.70
41344;DHT22;27089;50.022;7.604;2022-07-04T11:47:22;24.00;82.90
41344;DHT22;27089;50.022;7.604;2022-07-04T11:49:51;24.00;83.80
41344;DHT22;27089;50.022;7.604;2022-07-04T11:52:22;24.20;84.60
41344;DHT22;27089;50.022;7.604;2022-07-04T11:54:50;24.10;82.80
41344;DHT22;27089;50.022;7.604;2022-07-04T11:57:21;24.20;83.80
41344;DHT22;27089;50.022;7.604;2022-07-04T11:59:57;24.10;83.20
41344;DHT22;27089;50.022;7.604;2022-07-04T12:02:25;24.00;84.20
41344;DHT22;27089;50.022;7.604;2022-07-04T12:04:52;24.10;82.60
41344;DHT22;27089;50.022;7.604;2022-07-04T12:07:23;24.30;82.70
41344;DHT22;27089;50.022;7.604;2022-07-04T12:09:51;24.50;85.50
41344;DHT22;27089;50.022;7.604;2022-07-04T12:12:18;24.70;80.70
41344;DHT22;27089;50.022;7.604;2022-07-04T12:15:04;24.90;80.40
41344;DHT22;27089;50.022;7.604;2022-07-04T12:17:33;25.00;82.20
41344;DHT22;27089;50.022;7.604;2022-07-04T12:20:02;25.20;79.70
41344;DHT22;27089;50.022;7.604;2022-07-04T12:22:38;25.20;73.90
41344;DHT22;27089;50.022;7.604;2022-07-04T12:25:07;25.30;75.70
41344;DHT22;27089;50.022;7.604;2022-07-04T12:27:36;25.30;77.20
41344;DHT22;27089;50.022;7.604;2022-07-04T12:30:04;25.30;78.00
41344;DHT22;27089;50.022;7.604;2022-07-04T12:32:44;25.40;82.00
41344;DHT22;27089;50.022;7.604;2022-07-04T12:35:39;25.30;78.40
41344;DHT22;27089;50.022;7.604;2022-07-04T12:38:10;25.20;80.20
41344;DHT22;27089;50.022;7.604;2022-07-04T12:40:52;25.30;80.30
41344;DHT22;27089;50.022;7.604;2022-07-04T12:43:20;25.40;81.20
41344;DHT22;27089;50.022;7.604;2022-07-04T12:45:48;25.40;77.70
41344;DHT22;27089;50.022;7.604;2022-07-04T12:48:17;25.50;81.10
41344;DHT22;27089;50.022;7.604;2022-07-04T12:50:45;25.60;80.40
41344;DHT22;27089;50.022;7.604;2022-07-04T12:53:13;25.70;79.40
41344;DHT22;27089;50.022;7.604;2022-07-04T12:55:41;25.70;79.50
41344;DHT22;27089;50.022;7.604;2022-07-04T12:58:09;25.80;79.80
41344;DHT22;27089;50.022;7.604;2022-07-04T13:00:37;25.90;80.40
41344;DHT22;27089;50.022;7.604;2022-07-04T13:03:04;26.00;80.40
41344;DHT22;27089;50.022;7.604;2022-07-04T13:05:34;26.10;82.10
41344;DHT22;27089;50.022;7.604;2022-07-04T13:08:02;26.20;78.30
41344;DHT22;27089;50.022;7.604;2022-07-04T13:10:30;26.20;79.30
41344;DHT22;27089;50.022;7.604;2022-07-04T13:12:58;26.20;78.50
41344;DHT22;27089;50.022;7.604;2022-07-04T13:15:24;26.20;79.30
41344;DHT22;27089;50.022;7.604;2022-07-04T13:17:52;26.20;80.30
41344;DHT22;27089;50.022;7.604;2022-07-04T13:20:19;26.20;77.80
41344;DHT22;27089;50.022;7.604;2022-07-04T13:22:46;26.20;78.10
41344;DHT22;27089;50.022;7.604;2022-07-04T13:25:13;26.20;80.90
41344;DHT22;27089;50.022;7.604;2022-07-04T13:27:41;26.20;79.20
41344;DHT22;27089;50.022;7.604;2022-07-04T13:30:09;26.10;76.00
41344;DHT22;27089;50.022;7.604;2022-07-04T13:32:36;26.00;79.20
41344;DHT22;27089;50.022;7.604;2022-07-04T13:35:04;25.80;78.90
41344;DHT22;27089;50.022;7.604;2022-07-04T13:37:31;25.70;79.80
41344;DHT22;27089;50.022;7.604;2022-07-04T13:39:58;25.80;79.90
41344;DHT22;27089;50.022;7.604;2022-07-04T13:42:25;25.80;79.10
41344;DHT22;27089;50.022;7.604;2022-07-04T13:45:11;26.00;79.90
41344;DHT22;27089;50.022;7.604;2022-07-04T13:47:40;26.20;78.70
41344;DHT22;27089;50.022;7.604;2022-07-04T13:50:07;26.40;76.90
41344;DHT22;27089;50.022;7.604;2022-07-04T13:52:34;26.50;77.40
41344;DHT22;27089;50.022;7.604;2022-07-04T13:55:01;26.50;75.40
41344;DHT22;27089;50.022;7.604;2022-07-04T13:57:29;26.60;77.10
41344;DHT22;27089;50.022;7.604;2022-07-04T13:59:56;26.60;76.30
41344;DHT22;27089;50.022;7.604;2022-07-04T14:02:24;26.60;75.90
41344;DHT22;27089;50.022;7.604;2022-07-04T14:04:51;26.50;74.90
41344;DHT22;27089;50.022;7.604;2022-07-04T14:07:18;26.50;76.80
41344;DHT22;27089;50.022;7.604;2022-07-04T14:09:46;26.60;75.70
41344;DHT22;27089;50.022;7.604;2022-07-04T14:12:12;26.60;78.20
41344;DHT22;27089;50.022;7.604;2022-07-04T14:14:40;26.60;76.40
41344;DHT22;27089;50.022;7.604;2022-07-04T14:17:07;26.60;78.60
41344;DHT22;27089;50.022;7.604;2022-07-04T14:19:35;26.60;74.80
41344;DHT22;27089;50.022;7.604;2022-07-04T14:22:02;26.30;77.10
41344;DHT22;27089;50.022;7.604;2022-07-04T14:24:29;26.30;78.50
41344;DHT22;27089;50.022;7.604;2022-07-04T14:26:56;26.20;73.90
41344;DHT22;27089;50.022;7.604;2022-07-04T14:29:23;26.20;75.00
41344;DHT22;27089;50.022;7.604;2022-07-04T14:31:50;26.00;75.90
41344;DHT22;27089;50.022;7.604;2022-07-04T14:34:18;25.80;77.00
41344;DHT22;27089;50.022;7.604;2022-07-04T14:36:46;25.90;80.90
41344;DHT22;27089;50.022;7.604;2022-07-04T14:39:14;26.00;78.40
41344;DHT22;27089;50.022;7.604;2022-07-04T14:41:41;26.20;76.90
41344;DHT22;27089;50.022;7.604;2022-07-04T14:44:08;26.30;77.80
41344;DHT22;27089;50.022;7.604;2022-07-04T14:46:35;26.30;77.30
41344;DHT22;27089;50.022;7.604;2022-07-04T14:49:02;26.30;72.10
41344;DHT22;27089;50.022;7.604;2022-07-04T14:51:29;26.20;72.30
41344;DHT22;27089;50.022;7.604;2022-07-04T14:53:57;26.20;71.30
41344;DHT22;27089;50.022;7.604;2022-07-04T14:56:24;26.20;71.50
41344;DHT22;27089;50.022;7.604;2022-07-04T14:58:51;26.30;75.90
41344;DHT22;27089;50.022;7.604;2022-07-04T15:01:18;26.50;75.50
41344;DHT22;27089;50.022;7.604;2022-07-04T15:03:46;26.70;74.60
41344;DHT22;27089;50.022;7.604;2022-07-04T15:06:13;26.80;73.60
41344;DHT22;27089;50.022;7.604;2022-07-04T15:08:40;26.70;73.50
41344;DHT22;27089;50.022;7.604;2022-07-04T15:11:08;26.50;73.90
41344;DHT22;27089;50.022;7.604;2022-07-04T15:13:35;26.40;74.50
41344;DHT22;27089;50.022;7.604;2022-07-04T15:16:03;26.40;73.30
41344;DHT22;27089;50.022;7.604;2022-07-04T15:18:30;26.50;72.40
41344;DHT22;27089;50.022;7.604;2022-07-04T15:20:57;26.50;70.90
41344;DHT22;27089;50.022;7.604;2022-07-04T15:23:42;26.50;75.80
41344;DHT22;27089;50.022;7.604;2022-07-04T15:26:29;26.30;73.90
41344;DHT22;27089;50.022;7.604;2022-07-04T15:28:56;26.00;73.20
41344;DHT22;27089;50.022;7.604;2022-07-04T15:31:23;25.60;73.80
41344;DHT22;27089;50.022;7.604;2022-07-04T15:33:50;25.30;74.00
41344;DHT22;27089;50.022;7.604;2022-07-04T15:36:17;25.30;74.20
41344;DHT22;27089;50.022;7.604;2022-07-04T15:38:44;25.40;76.90
41344;DHT22;27089;50.022;7.604;2022-07-04T15:41:11;25.60;79.10